Time;durP1;ratioP1;P1;durP2;ratioP2;P2;SDS_P1;SDS_P2;PMS_P1;PMS_P2;Temp;Humidity;BMP_temperature;BMP_pressure;BME280_temperature;BME280_humidity;BME280_pressure;Samples;Min_cycle;Max_cycle;Signal;HPM_P1;HPM_P2
2022/04/21 00:01:07;;;;;;;8.50;5.03;;;;;;;6.34;100.00;100745.25;5025095;28;20042;-78
2022/04/21 00:03:34;;;;;;;7.27;3.87;;;;;;;6.50;100.00;100748.72;5001978;28;20044;-78
2022/04/21 00:06:01;;;;;;;9.83;5.50;;;;;;;6.49;100.00;100749.63;4994284;28;20038;-78
2022/04/21 00:08:31;;;;;;;9.70;4.87;;;;;;;6.46;100.00;100753.09;5012689;28;20041;-78
2022/04/21 00:10:58;;;;;;;8.73;4.60;;;;;;;6.56;100.00;100756.59;5009903;28;20044;-78
2022/04/21 00:13:25;;;;;;;9.67;4.80;;;;;;;6.45;100.00;100746.09;5010804;28;20573;-78
2022/04/21 00:15:54;;;;;;;9.50;5.30;;;;;;;6.48;100.00;100740.00;4995765;28;20502;-78
2022/04/21 00:18:21;;;;;;;9.73;5.73;;;;;;;6.34;100.00;100742.63;5011549;28;20038;-79
2022/04/21 00:20:50;;;;;;;8.30;4.30;;;;;;;6.43;100.00;100740.00;5027487;28;20489;-78
2022/04/21 00:23:26;;;;;;;11.30;6.63;;;;;;;6.43;100.00;100737.38;5012336;28;20041;-78
2022/04/21 00:25:58;;;;;;;8.30;4.47;;;;;;;6.57;100.00;100737.34;5007498;28;20132;-78
2022/04/21 00:28:28;;;;;;;8.63;4.43;;;;;;;6.60;100.00;100734.69;5011595;28;20672;-78
2022/04/21 00:30:55;;;;;;;9.33;5.63;;;;;;;6.47;100.00;100727.72;5026729;28;20034;-78
2022/04/21 00:33:26;;;;;;;10.37;5.17;;;;;;;6.48;100.00;100724.25;4996594;28;20064;-78
2022/04/21 00:35:53;;;;;;;9.27;4.70;;;;;;;6.48;100.00;100722.50;5026261;28;20044;-78
2022/04/21 00:38:21;;;;;;;8.70;4.83;;;;;;;6.45;100.00;100721.59;5023359;28;20589;-79
2022/04/21 00:40:49;;;;;;;8.03;4.50;;;;;;;6.49;100.00;100723.38;5005066;28;20422;-78
2022/04/21 00:43:17;;;;;;;7.47;4.77;;;;;;;6.49;100.00;100715.50;4997065;28;20052;-78
2022/04/21 00:45:44;;;;;;;8.37;5.33;;;;;;;6.32;100.00;100720.78;5003522;28;20040;-78
2022/04/21 00:48:13;;;;;;;12.13;5.27;;;;;;;6.30;100.00;100721.63;5024337;28;20042;-78
2022/04/21 00:50:41;;;;;;;10.13;5.13;;;;;;;6.37;100.00;100720.75;5008765;28;20061;-78
2022/04/21 00:53:08;;;;;;;9.23;5.43;;;;;;;6.40;100.00;100711.16;4985001;28;20496;-78
2022/04/21 00:55:37;;;;;;;10.80;4.97;;;;;;;6.34;100.00;100700.66;5026572;28;20388;-78
2022/04/21 00:58:05;;;;;;;9.53;5.50;;;;;;;6.20;100.00;100705.91;5009586;28;20070;-78
2022/04/21 01:00:31;;;;;;;9.17;5.00;;;;;;;6.40;100.00;100710.28;5003809;28;20341;-78
2022/04/21 01:02:59;;;;;;;9.57;4.73;;;;;;;6.36;100.00;100703.28;4983937;28;20037;-77
2022/04/21 01:05:30;;;;;;;10.00;5.50;;;;;;;6.36;100.00;100708.50;5011919;28;20038;-79
2022/04/21 01:08:04;;;;;;;10.50;5.33;;;;;;;6.37;100.00;100708.50;5015122;28;20395;-78
2022/04/21 01:10:33;;;;;;;8.18;5.05;;;;;;;6.40;100.00;100700.66;5000676;28;20109;-78
2022/04/21 01:13:00;;;;;;;8.43;5.07;;;;;;;6.39;100.00;100698.91;5006209;28;20046;-78
2022/04/21 01:15:27;;;;;;;9.97;5.73;;;;;;;6.34;100.00;100703.28;5022781;28;20057;-78
2022/04/21 01:17:54;;;;;;;9.57;5.10;;;;;;;6.35;100.00;100702.41;5007698;28;20049;-78
2022/04/21 01:20:25;;;;;;;10.27;5.57;;;;;;;6.34;100.00;100682.28;5007663;28;20220;-78
2022/04/21 01:22:53;;;;;;;9.73;5.27;;;;;;;6.31;100.00;100668.31;5013182;28;20115;-79
2022/04/21 01:25:21;;;;;;;7.83;4.90;;;;;;;6.30;100.00;100682.28;5005506;28;20057;-78
2022/04/21 01:27:50;;;;;;;11.90;5.20;;;;;;;6.30;100.00;100669.16;5003677;28;20447;-78
2022/04/21 01:30:17;;;;;;;9.87;4.93;;;;;;;6.44;100.00;100676.13;4989176;28;20487;-78
2022/04/21 01:32:44;;;;;;;9.43;5.13;;;;;;;6.38;100.00;100677.88;5009909;28;20447;-78
2022/04/21 01:35:17;;;;;;;10.40;5.60;;;;;;;6.26;100.00;100686.69;5006553;28;20127;-78
2022/04/21 01:43:16;;;;;;;10.10;5.30;;;;;;;6.46;100.00;100684.00;5007228;28;20042;-78
2022/04/21 01:45:43;;;;;;;7.30;4.60;;;;;;;6.37;100.00;100679.63;4993424;28;20045;-78
2022/04/21 01:48:10;;;;;;;12.90;5.67;;;;;;;6.33;100.00;100679.66;5028169;28;20033;-78
2022/04/21 01:50:37;;;;;;;8.83;4.90;;;;;;;6.38;100.00;100672.63;5021644;28;20049;-78
2022/04/21 01:53:04;;;;;;;10.83;5.23;;;;;;;6.24;100.00;100669.22;5025598;28;20040;-78
2022/04/21 01:55:31;;;;;;;10.67;5.97;;;;;;;6.29;100.00;100668.28;5007057;28;20049;-79
2022/04/21 01:57:57;;;;;;;10.20;5.30;;;;;;;6.33;100.00;100669.19;5026777;28;20498;-79
2022/04/21 02:00:27;;;;;;;11.90;4.93;;;;;;;6.17;100.00;100679.72;5009938;28;20037;-79
2022/04/21 02:02:53;;;;;;;14.67;5.50;;;;;;;6.25;100.00;100679.69;5021801;28;20054;-79
2022/04/21 02:05:20;;;;;;;8.20;5.50;;;;;;;6.10;100.00;100672.72;5011668;28;20498;-79
2022/04/21 02:07:47;;;;;;;9.20;5.60;;;;;;;6.11;100.00;100669.22;5001348;28;20049;-79
2022/04/21 02:10:16;;;;;;;11.03;5.73;;;;;;;6.16;100.00;100672.72;5008754;28;20717;-79
2022/04/21 02:12:43;;;;;;;10.90;5.00;;;;;;;6.21;100.00;100665.69;5009153;28;20048;-79
2022/04/21 02:15:10;;;;;;;7.77;4.47;;;;;;;6.18;100.00;100678.81;4990945;28;20033;-79
2022/04/21 02:17:37;;;;;;;9.57;5.50;;;;;;;6.19;100.00;100667.44;4993837;28;20042;-79
2022/04/21 02:20:06;;;;;;;8.73;4.90;;;;;;;6.19;100.00;100663.97;5004602;28;20064;-79
2022/04/21 02:22:35;;;;;;;7.10;4.93;;;;;;;6.16;100.00;100659.59;5030002;28;20033;-79
2022/04/21 02:25:03;;;;;;;8.87;4.80;;;;;;;6.25;100.00;100663.06;4985391;28;20048;-79
2022/04/21 02:27:30;;;;;;;7.60;4.60;;;;;;;6.14;100.00;100668.38;5010559;28;20049;-79
2022/04/21 02:29:57;;;;;;;11.53;5.67;;;;;;;6.19;100.00;100666.59;5008351;28;20033;-79
2022/04/21 02:32:23;;;;;;;7.23;4.63;;;;;;;6.04;100.00;100662.22;5003923;28;20041;-79
2022/04/21 02:34:51;;;;;;;8.93;4.87;;;;;;;6.09;100.00;100664.88;5002570;28;20045;-79
2022/04/21 02:37:18;;;;;;;10.40;5.00;;;;;;;6.08;100.00;100666.63;4987988;28;20050;-81
2022/04/21 02:39:45;;;;;;;7.93;4.90;;;;;;;6.04;100.00;100661.38;5011273;28;20247;-82
2022/04/21 02:42:11;;;;;;;11.83;5.27;;;;;;;5.99;100.00;100669.25;5028447;28;20041;-81
2022/04/21 02:44:38;;;;;;;8.43;4.77;;;;;;;5.90;100.00;100662.28;5000047;28;20041;-79
2022/04/21 02:47:08;;;;;;;8.83;4.63;;;;;;;5.90;100.00;100669.25;5021824;28;20049;-79
2022/04/21 02:49:35;;;;;;;8.57;4.60;;;;;;;5.89;100.00;100665.75;5009330;28;20092;-79
2022/04/21 02:52:06;;;;;;;10.63;5.30;;;;;;;6.00;100.00;100657.00;4992683;28;20139;-80
2022/04/21 02:57:21;;;;;;;8.73;4.13;;;;;;;5.96;100.00;100653.50;5025891;28;20038;-79
2022/04/21 02:59:49;;;;;;;7.90;4.53;;;;;;;5.87;100.00;100662.22;4995370;28;20034;-79
2022/04/21 03:02:17;;;;;;;8.07;4.50;;;;;;;5.78;100.00;100664.00;5024438;28;20041;-79
2022/04/21 03:04:44;;;;;;;9.50;4.67;;;;;;;5.67;100.00;100653.53;5027936;28;20041;-80
2022/04/21 03:07:11;;;;;;;11.60;5.10;;;;;;;5.74;100.00;100652.66;5012345;28;20041;-80
2022/04/21 03:09:38;;;;;;;11.33;5.20;;;;;;;5.78;100.00;100653.50;5009920;28;20042;-80
2022/04/21 03:12:07;;;;;;;10.00;4.57;;;;;;;5.77;100.00;100657.00;5011573;28;20042;-78
2022/04/21 03:14:36;;;;;;;13.23;5.60;;;;;;;5.57;100.00;100655.28;5007667;28;20042;-78
2022/04/21 03:17:08;;;;;;;11.43;5.03;;;;;;;5.58;100.00;100664.88;5009235;28;20033;-79
2022/04/21 03:19:35;;;;;;;9.57;4.87;;;;;;;5.74;100.00;100660.50;5012091;28;20513;-79
2022/04/21 03:24:48;;;;;;;10.17;5.30;;;;;;;5.72;100.00;100650.88;5021941;28;20048;-79
2022/04/21 03:27:15;;;;;;;8.57;5.03;;;;;;;5.66;100.00;100654.41;5011793;28;20045;-78
2022/04/21 03:29:42;;;;;;;9.90;5.73;;;;;;;5.70;100.00;100653.50;5018604;28;20103;-80
2022/04/21 03:32:12;;;;;;;8.10;4.87;;;;;;;5.76;100.00;100652.63;5006487;28;20459;-79
2022/04/21 03:34:42;;;;;;;9.93;5.20;;;;;;;5.87;100.00;100656.97;4991526;28;20096;-79
2022/04/21 03:37:13;;;;;;;8.70;5.87;;;;;;;5.87;100.00;100658.75;5008350;28;20042;-80
2022/04/21 03:39:43;;;;;;;9.57;4.60;;;;;;;5.87;100.00;100661.34;5010164;28;20041;-82
2022/04/21 03:42:24;;;;;;;8.07;5.10;;;;;;;5.88;100.00;100668.34;5024159;28;20458;-81
2022/04/21 03:44:51;;;;;;;12.67;5.87;;;;;;;5.88;100.00;100663.97;5000128;28;20140;-81
2022/04/21 03:47:18;;;;;;;9.30;4.80;;;;;;;5.91;100.00;100660.53;5025989;28;20058;-81
2022/04/21 03:49:45;;;;;;;9.63;5.17;;;;;;;5.96;100.00;100665.75;5005206;28;20125;-81
2022/04/21 03:52:11;;;;;;;9.57;5.43;;;;;;;5.99;100.00;100661.38;4988057;28;20041;-81
2022/04/21 03:54:39;;;;;;;12.33;5.60;;;;;;;6.03;100.00;100665.72;4990911;28;20384;-81
2022/04/21 03:57:09;;;;;;;9.63;4.77;;;;;;;6.08;100.00;100668.38;5024975;28;20479;-80
2022/04/21 03:59:36;;;;;;;9.60;5.70;;;;;;;6.06;100.00;100672.75;5014098;28;20471;-82
2022/04/21 04:02:04;;;;;;;15.90;6.63;;;;;;;6.10;100.00;100677.97;4988854;28;20128;-81
2022/04/21 04:04:32;;;;;;;7.67;5.37;;;;;;;6.02;100.00;100679.72;4993587;28;20042;-82
2022/04/21 04:12:34;;;;;;;12.00;6.27;;;;;;;6.08;100.00;100682.34;5009166;28;20528;-80
2022/04/21 04:15:02;;;;;;;11.53;5.77;;;;;;;6.06;100.00;100689.34;5003873;28;20037;-81
2022/04/21 04:17:31;;;;;;;11.83;5.87;;;;;;;6.07;100.00;100682.38;5007929;28;20038;-80
2022/04/21 04:19:58;;;;;;;10.30;5.20;;;;;;;6.08;100.00;100687.59;5010096;28;20033;-81
2022/04/21 04:22:24;;;;;;;12.80;5.67;;;;;;;6.25;100.00;100678.81;5010434;28;20422;-81
2022/04/21 04:24:54;;;;;;;9.03;5.27;;;;;;;6.22;100.00;100674.44;5016991;28;20137;-81
2022/04/21 04:27:22;;;;;;;11.13;5.97;;;;;;;6.19;100.00;100685.81;5003120;28;20409;-82
2022/04/21 04:29:48;;;;;;;10.97;5.90;;;;;;;6.23;100.00;100678.84;5004996;28;20034;-82
2022/04/21 04:32:15;;;;;;;11.40;6.33;;;;;;;6.21;100.00;100685.81;5007788;28;20131;-81
2022/04/21 04:34:43;;;;;;;12.13;6.00;;;;;;;6.12;100.00;100689.31;5008452;28;20572;-82
2022/04/21 04:37:10;;;;;;;11.67;5.43;;;;;;;6.17;100.00;100700.69;5005739;28;20475;-81
2022/04/21 04:39:36;;;;;;;10.90;5.80;;;;;;;6.26;100.00;100698.94;4990116;28;20518;-82
2022/04/21 04:42:16;;;;;;;13.17;6.73;;;;;;;6.31;100.00;100697.19;5015096;28;20068;-82
2022/04/21 04:44:48;;;;;;;10.57;5.50;;;;;;;6.32;100.00;100705.03;5006723;28;20140;-81
2022/04/21 04:47:14;;;;;;;13.47;5.67;;;;;;;6.33;100.00;100692.78;4993107;28;20054;-80
2022/04/21 04:49:42;;;;;;;10.37;4.70;;;;;;;6.34;100.00;100698.03;5003349;28;20041;-79
2022/04/21 04:52:09;;;;;;;14.27;6.00;;;;;;;6.45;100.00;100692.75;5017970;28;20140;-79
2022/04/21 04:54:36;;;;;;;13.83;6.17;;;;;;;6.57;100.00;100695.34;5023554;28;20510;-79
2022/04/21 04:57:03;;;;;;;8.77;4.67;;;;;;;6.46;100.00;100682.22;5015346;28;20108;-80
2022/04/21 04:59:30;;;;;;;11.37;5.00;;;;;;;6.46;100.00;100691.84;5024965;28;20037;-79
2022/04/21 05:01:58;;;;;;;12.23;5.50;;;;;;;6.54;100.00;100694.47;5006587;28;20049;-79
2022/04/21 05:04:27;;;;;;;11.27;6.37;;;;;;;6.46;100.00;100687.47;5006962;28;20136;-78
2022/04/21 05:06:55;;;;;;;11.10;6.00;;;;;;;6.46;100.00;100695.34;5029265;28;20132;-78
2022/04/21 05:09:23;;;;;;;11.00;6.67;;;;;;;6.49;100.00;100690.13;5022957;28;20076;-78
2022/04/21 05:11:52;;;;;;;10.87;5.50;;;;;;;6.42;100.00;100693.63;5013661;28;20049;-79
2022/04/21 05:14:19;;;;;;;12.53;5.80;;;;;;;6.54;100.00;100695.34;5001887;28;20045;-80
2022/04/21 05:16:46;;;;;;;12.47;5.63;;;;;;;6.56;100.00;100690.06;5026529;28;20045;-78
2022/04/21 05:19:16;;;;;;;12.93;6.43;;;;;;;6.59;100.00;100698.81;5021206;28;20037;-79
2022/04/21 05:21:43;;;;;;;10.50;5.93;;;;;;;6.61;100.00;100688.31;4996080;28;20136;-79
2022/04/21 05:24:11;;;;;;;11.83;6.63;;;;;;;6.63;100.00;100689.19;5013396;28;20208;-79
2022/04/21 05:26:38;;;;;;;9.03;5.37;;;;;;;6.71;100.00;100697.91;5012528;28;20471;-79
2022/04/21 05:31:59;;;;;;;8.60;5.13;;;;;;;6.79;100.00;100685.59;5024982;28;20096;-81
2022/04/21 05:34:27;;;;;;;11.70;5.97;;;;;;;6.69;100.00;100692.66;5020440;28;20103;-80
2022/04/21 05:36:54;;;;;;;12.40;6.27;;;;;;;6.75;100.00;100690.00;5003367;28;20072;-79
2022/04/21 05:39:21;;;;;;;12.27;5.30;;;;;;;6.72;100.00;100690.00;5003982;28;20064;-79
2022/04/21 05:41:51;;;;;;;11.17;5.90;;;;;;;6.63;100.00;100689.19;5003047;28;20084;-80
2022/04/21 05:44:18;;;;;;;12.90;5.97;;;;;;;6.57;100.00;100684.84;5009203;28;20049;-80
2022/04/21 05:46:45;;;;;;;11.70;5.63;;;;;;;6.65;100.00;100677.81;5009364;28;20045;-80
2022/04/21 05:49:13;;;;;;;12.13;5.60;;;;;;;6.75;100.00;100679.50;5040577;28;20057;-79
2022/04/21 05:51:41;;;;;;;10.70;5.53;;;;;;;6.70;100.00;100689.16;5011363;28;20038;-79
2022/04/21 05:54:08;;;;;;;13.43;5.70;;;;;;;6.63;100.00;100682.16;5005656;28;20042;-79
2022/04/21 05:56:36;;;;;;;12.53;5.97;;;;;;;6.86;100.00;100683.84;5018828;28;20041;-78
2022/04/21 05:59:03;;;;;;;10.00;4.93;;;;;;;6.84;100.00;100680.34;5004972;28;20526;-79
2022/04/21 06:01:30;;;;;;;10.47;5.17;;;;;;;6.74;100.00;100683.03;5009990;28;20045;-79
2022/04/21 06:03:58;;;;;;;11.73;5.67;;;;;;;6.79;100.00;100677.72;5001373;28;20038;-79
2022/04/21 06:06:24;;;;;;;9.33;5.33;;;;;;;6.88;100.00;100679.44;5006335;28;20115;-80
2022/04/21 06:08:52;;;;;;;11.13;5.57;;;;;;;6.98;100.00;100670.66;5005206;28;20041;-80
2022/04/21 06:11:19;;;;;;;10.67;6.07;;;;;;;6.99;100.00;100667.16;5006230;28;20045;-80
2022/04/21 06:13:45;;;;;;;11.90;5.43;;;;;;;7.07;100.00;100665.34;5010981;28;20033;-80
2022/04/21 06:16:12;;;;;;;10.77;6.73;;;;;;;7.16;100.00;100664.41;5017752;28;20037;-80
2022/04/21 06:18:39;;;;;;;9.07;5.63;;;;;;;7.31;100.00;100672.16;5017463;28;20037;-80
2022/04/21 06:21:09;;;;;;;10.77;5.97;;;;;;;7.56;100.00;100662.34;5017752;28;20037;-80
2022/04/21 06:23:36;;;;;;;9.40;4.93;;;;;;;7.57;100.00;100657.09;5026901;28;20034;-80
2022/04/21 06:26:04;;;;;;;9.53;5.27;;;;;;;7.81;100.00;100666.50;5023515;28;20048;-79
2022/04/21 06:28:34;;;;;;;12.63;5.90;;;;;;;7.90;100.00;100662.91;5018039;28;20038;-80
2022/04/21 06:31:01;;;;;;;11.83;5.90;;;;;;;7.85;100.00;100668.22;5019325;28;20372;-79
2022/04/21 06:33:31;;;;;;;11.73;5.13;;;;;;;8.22;100.00;100673.13;5000300;28;20042;-80
2022/04/21 06:35:59;;;;;;;10.20;5.27;;;;;;;8.05;100.00;100670.66;5002001;28;20072;-79
2022/04/21 06:38:27;;;;;;;9.40;4.73;;;;;;;8.15;100.00;100677.56;5027383;28;20088;-79
2022/04/21 06:40:53;;;;;;;8.07;4.37;;;;;;;8.03;100.00;100672.44;5031746;28;20029;-79
2022/04/21 06:48:52;;;;;;;9.57;5.57;;;;;;;8.29;100.00;100674.81;5035545;28;20037;-80
2022/04/21 06:51:19;;;;;;;11.23;4.67;;;;;;;8.37;98.87;100683.53;5019387;28;20042;-80
2022/04/21 06:53:46;;;;;;;8.30;4.53;;;;;;;8.49;98.93;100685.13;5034251;28;20076;-80
2022/04/21 06:56:13;;;;;;;14.07;5.93;;;;;;;8.28;96.32;100680.09;4994510;28;20048;-80
2022/04/21 06:58:42;;;;;;;9.27;5.33;;;;;;;8.53;94.99;100692.13;4996362;28;20033;-79
2022/04/21 07:01:09;;;;;;;9.13;4.60;;;;;;;8.49;95.25;100686.91;5024611;28;20088;-80
2022/04/21 07:03:36;;;;;;;10.40;5.30;;;;;;;8.50;94.62;100688.66;5033527;28;20069;-79
2022/04/21 07:06:03;;;;;;;11.00;5.13;;;;;;;8.36;94.14;100692.31;5005837;28;20794;-80
2022/04/21 07:08:30;;;;;;;9.03;4.77;;;;;;;8.28;95.75;100690.63;5027091;28;21024;-80
2022/04/21 07:10:57;;;;;;;7.70;4.83;;;;;;;8.47;95.10;100684.28;5015586;28;20049;-80
2022/04/21 07:13:24;;;;;;;11.43;4.97;;;;;;;8.58;93.53;100685.06;4991910;28;20429;-80
2022/04/21 07:15:51;;;;;;;7.27;4.40;;;;;;;8.64;93.99;100684.09;5010617;28;20104;-79
2022/04/21 07:18:18;;;;;;;10.67;5.40;;;;;;;8.50;94.53;100691.31;5028882;28;20121;-80
2022/04/21 07:20:45;;;;;;;10.33;5.67;;;;;;;8.74;92.87;100683.06;5032222;28;20053;-80
2022/04/21 07:23:12;;;;;;;8.93;4.47;;;;;;;9.06;93.12;100687.06;5013448;28;20045;-80
2022/04/21 07:25:39;;;;;;;12.33;4.60;;;;;;;9.25;94.69;100689.44;4996256;28;20038;-80
2022/04/21 07:28:06;;;;;;;8.00;4.63;;;;;;;9.50;94.23;100687.28;5024255;28;20030;-80
2022/04/21 07:30:33;;;;;;;9.63;4.53;;;;;;;9.84;86.54;100692.88;5010941;28;20549;-78
2022/04/21 07:33:01;;;;;;;9.02;4.30;;;;;;;9.88;85.93;100688.41;4997590;28;20052;-79
2022/04/21 07:35:29;;;;;;;10.82;5.13;;;;;;;9.83;84.36;100691.13;5005219;28;20120;-80
2022/04/21 07:37:59;;;;;;;19.25;5.90;;;;;;;9.93;83.90;100696.28;5006200;28;20294;-79
2022/04/21 18:06:22;;;;;;;6.95;3.55;;;;;;;10.78;86.32;100696.44;5106258;27;20365;-81
2022/04/21 18:08:49;;;;;;;6.40;3.33;;;;;;;11.02;82.33;100687.13;5066504;28;20041;-77
2022/04/21 18:11:16;;;;;;;8.15;3.13;;;;;;;11.13;80.54;100688.63;5038735;28;20500;-78
2022/04/21 18:13:45;;;;;;;5.32;3.08;;;;;;;11.31;80.24;100686.47;5034011;28;20119;-77
2022/04/21 18:16:13;;;;;;;4.57;3.40;;;;;;;11.46;76.20;100689.63;5086614;28;20132;-78
2022/04/21 18:18:40;;;;;;;7.80;3.50;;;;;;;11.45;77.82;100685.25;5067488;28;20128;-77
2022/04/21 18:21:07;;;;;;;6.70;2.83;;;;;;;11.44;77.48;100691.44;5065283;28;20448;-77
2022/04/21 18:23:36;;;;;;;4.57;2.72;;;;;;;11.42;78.42;100687.94;5047494;28;20040;-77
2022/04/21 18:26:02;;;;;;;4.43;3.25;;;;;;;11.34;77.83;100689.03;5027765;28;20040;-78
2022/04/21 18:28:29;;;;;;;5.18;2.80;;;;;;;11.17;78.10;100690.28;5055927;28;20531;-78
2022/04/21 18:30:56;;;;;;;5.95;3.60;;;;;;;11.31;75.40;100681.16;5041325;28;20041;-76
2022/04/21 18:33:22;;;;;;;3.85;2.70;;;;;;;11.36;75.85;100682.81;5026899;28;20052;-77
2022/04/21 18:35:49;;;;;;;4.75;3.05;;;;;;;11.49;72.79;100686.03;5046177;28;20359;-77
2022/04/21 18:38:16;;;;;;;6.78;3.20;;;;;;;11.25;71.62;100682.16;5032808;28;20460;-77
2022/04/21 18:40:42;;;;;;;5.97;2.90;;;;;;;11.18;73.32;100696.44;5037811;28;20215;-77
2022/04/21 18:43:09;;;;;;;6.03;2.72;;;;;;;11.23;70.11;100694.56;5056960;28;20036;-78
2022/04/21 18:45:36;;;;;;;4.50;2.78;;;;;;;11.22;71.40;100693.69;5063231;28;20040;-77
2022/04/21 18:48:03;;;;;;;5.75;3.25;;;;;;;11.06;72.45;100692.31;5055415;28;20048;-78
2022/04/21 18:50:30;;;;;;;4.28;2.85;;;;;;;11.05;71.75;100692.34;5043265;28;20043;-77
2022/04/21 18:52:58;;;;;;;3.78;2.75;;;;;;;11.01;73.35;100691.53;5045730;28;20068;-78
2022/04/21 18:55:25;;;;;;;4.30;2.58;;;;;;;10.88;71.75;100687.41;5068032;28;20042;-77
2022/04/21 19:00:37;;;;;;;3.55;2.58;;;;;;;10.67;75.22;100681.66;5059968;28;20044;-78
2022/04/21 19:03:10;;;;;;;4.15;2.63;;;;;;;10.71;73.75;100693.06;5036938;28;20398;-78
2022/04/21 19:05:36;;;;;;;3.58;2.60;;;;;;;10.76;72.60;100693.81;5077645;28;20056;-77
2022/04/21 19:08:03;;;;;;;4.05;2.42;;;;;;;10.65;75.54;100688.75;5050645;28;20045;-78
2022/04/21 19:10:30;;;;;;;5.70;2.45;;;;;;;10.60;76.58;100679.19;5026381;28;20047;-77
2022/04/21 19:12:57;;;;;;;4.78;2.33;;;;;;;10.57;74.75;100685.41;5046828;28;20072;-76
2022/04/21 19:15:25;;;;;;;4.03;2.88;;;;;;;10.50;74.02;100683.78;5028400;28;20036;-76
2022/04/21 19:17:53;;;;;;;3.72;2.40;;;;;;;10.58;71.36;100678.34;5050759;28;20469;-77
2022/04/21 19:20:19;;;;;;;5.10;2.45;;;;;;;10.37;73.85;100679.66;5053427;28;20045;-77
2022/04/21 19:22:46;;;;;;;3.58;2.30;;;;;;;10.24;74.35;100675.47;5017780;28;20041;-78
2022/04/21 19:25:13;;;;;;;6.30;2.08;;;;;;;10.25;74.43;100667.53;5045357;28;20045;-77
2022/04/21 19:27:44;;;;;;;4.38;2.50;;;;;;;10.15;73.98;100666.81;5048941;28;20064;-77
2022/04/21 19:30:15;;;;;;;4.63;2.65;;;;;;;10.09;73.60;100672.22;5047601;28;20051;-76
2022/04/21 19:32:42;;;;;;;3.72;2.55;;;;;;;9.96;74.21;100675.09;5016425;28;20449;-76
2022/04/21 19:35:11;;;;;;;7.50;2.53;;;;;;;9.77;76.38;100675.41;5037379;28;20044;-77
2022/04/21 19:37:38;;;;;;;4.10;2.30;;;;;;;9.80;76.39;100667.44;5033630;28;20045;-77
2022/04/21 19:40:05;;;;;;;4.68;3.28;;;;;;;9.62;76.34;100666.88;5035301;28;20049;-78
2022/04/21 19:42:37;;;;;;;3.20;2.30;;;;;;;9.66;76.07;100672.06;5056647;28;20044;-77
2022/04/21 19:45:06;;;;;;;3.70;2.50;;;;;;;9.56;77.68;100674.00;5033907;28;20040;-77
2022/04/21 19:47:33;;;;;;;2.95;2.25;;;;;;;9.57;77.58;100667.81;5018270;28;20333;-77
2022/04/21 19:50:00;;;;;;;4.85;2.15;;;;;;;9.48;77.88;100664.47;5028687;28;20041;-77
2022/04/21 19:52:26;;;;;;;3.88;2.40;;;;;;;9.62;76.97;100661.59;5052607;28;20044;-77
2022/04/21 19:54:53;;;;;;;3.47;2.35;;;;;;;9.61;76.26;100662.50;5039465;28;20041;-77
2022/04/21 19:57:20;;;;;;;3.85;2.72;;;;;;;9.52;78.27;100664.41;5048124;28;20498;-77
2022/04/21 20:00:07;;;;;;;3.80;2.40;;;;;;;9.27;79.60;100660.41;5045582;28;20330;-77
2022/04/21 20:02:57;;;;;;;3.22;2.50;;;;;;;9.17;79.26;100653.53;5064243;28;20470;-77
2022/04/21 20:10:55;;;;;;;4.57;2.83;;;;;;;9.19;80.43;100654.38;5033469;28;20049;-76
2022/04/21 20:13:23;;;;;;;5.72;2.80;;;;;;;9.09;78.98;100647.50;5053401;28;20075;-79
2022/04/21 20:15:52;;;;;;;4.87;2.20;;;;;;;8.97;80.72;100652.03;5036118;28;20033;-79
2022/04/21 20:18:19;;;;;;;5.40;2.88;;;;;;;8.89;80.61;100651.25;5054071;28;20044;-77
2022/04/21 20:23:32;;;;;;;6.27;2.67;;;;;;;8.78;81.30;100653.19;5031727;28;20136;-76
2022/04/21 20:28:45;;;;;;;4.33;2.70;;;;;;;8.59;82.72;100654.31;5040449;28;20033;-76
2022/04/21 20:31:12;;;;;;;3.33;2.60;;;;;;;8.56;82.73;100649.06;5031402;28;20568;-76
2022/04/21 20:33:38;;;;;;;4.63;3.23;;;;;;;8.43;83.60;100643.97;5045866;28;20228;-77
2022/04/21 20:36:07;;;;;;;5.50;2.50;;;;;;;8.34;84.42;100648.44;5031929;28;20486;-76
2022/04/21 20:38:39;;;;;;;4.87;2.70;;;;;;;8.19;84.93;100650.34;5037291;28;20058;-77
2022/04/21 20:41:10;;;;;;;3.53;2.50;;;;;;;8.07;85.03;100646.97;5030826;28;20333;-77
2022/04/21 20:43:37;;;;;;;4.07;2.80;;;;;;;8.08;85.62;100644.34;5044861;28;20052;-77
2022/04/21 20:46:05;;;;;;;5.10;2.67;;;;;;;7.89;85.78;100648.88;5034891;28;20040;-77
2022/04/21 20:48:35;;;;;;;5.40;2.87;;;;;;;7.84;87.14;100648.09;5029430;28;20076;-77
2022/04/21 20:51:05;;;;;;;4.97;3.05;;;;;;;7.69;87.11;100637.69;5031676;28;20045;-76
2022/04/21 20:53:32;;;;;;;4.47;2.60;;;;;;;7.49;88.65;100643.16;5020232;28;20498;-76
2022/04/21 20:55:59;;;;;;;6.60;3.00;;;;;;;7.46;88.61;100637.88;5044918;28;20044;-78
2022/04/21 20:58:26;;;;;;;5.00;2.80;;;;;;;7.40;88.92;100639.69;5026178;28;20052;-78
2022/04/21 21:00:52;;;;;;;6.63;3.27;;;;;;;7.43;88.82;100644.94;5060764;28;20048;-77
2022/04/21 21:03:19;;;;;;;6.03;3.10;;;;;;;7.41;89.16;100636.22;5041187;28;20048;-77
2022/04/21 21:05:46;;;;;;;4.93;3.30;;;;;;;7.11;90.96;100645.16;5029888;28;20136;-77
2022/04/21 21:08:14;;;;;;;5.60;3.40;;;;;;;7.07;91.47;100640.81;5022763;28;20038;-77
2022/04/21 21:10:40;;;;;;;5.10;2.97;;;;;;;7.13;91.75;100646.03;5039834;28;20051;-77
2022/04/21 21:13:07;;;;;;;7.20;3.60;;;;;;;7.04;92.31;100649.59;5002415;28;20056;-78
2022/04/21 21:15:35;;;;;;;4.93;3.70;;;;;;;6.99;92.68;100641.75;5028641;28;20063;-77
2022/04/21 21:18:02;;;;;;;5.97;3.13;;;;;;;6.71;94.72;100643.63;5023348;28;20556;-77
2022/04/21 21:20:28;;;;;;;7.73;3.40;;;;;;;6.67;95.15;100641.03;5042353;28;20438;-77
2022/04/21 21:22:55;;;;;;;5.77;2.90;;;;;;;6.52;96.03;100641.13;5048599;28;20049;-77
2022/04/21 21:25:22;;;;;;;5.17;2.97;;;;;;;6.42;96.39;100645.53;5043622;28;20044;-77
2022/04/21 21:27:48;;;;;;;6.17;3.97;;;;;;;6.58;96.92;100646.34;5078256;28;20037;-78
2022/04/21 21:30:16;;;;;;;5.57;3.80;;;;;;;6.50;97.49;100649.00;5046507;28;20045;-78
2022/04/21 21:32:45;;;;;;;5.80;3.17;;;;;;;6.41;98.32;100649.03;5028713;28;20041;-78
2022/04/21 21:35:13;;;;;;;7.87;3.57;;;;;;;6.31;99.47;100642.94;5014544;28;20072;-78
2022/04/21 21:37:41;;;;;;;6.73;3.47;;;;;;;6.38;97.25;100641.16;5027855;28;20119;-77
2022/04/21 21:40:09;;;;;;;5.63;2.90;;;;;;;6.26;99.41;100644.69;5062433;28;20045;-78
2022/04/21 21:42:39;;;;;;;8.63;3.77;;;;;;;6.11;100.00;100645.63;5028948;28;20060;-78
2022/04/21 21:45:08;;;;;;;8.13;3.43;;;;;;;6.08;100.00;100653.50;5043809;28;20351;-77
2022/04/21 21:47:37;;;;;;;5.77;3.27;;;;;;;6.16;100.00;100654.34;5037540;28;20041;-79
2022/04/21 21:52:55;;;;;;;5.13;3.30;;;;;;;5.82;100.00;100639.53;5039400;28;20041;-78
2022/04/21 21:55:30;;;;;;;6.10;3.60;;;;;;;5.96;100.00;100640.41;5041132;28;20045;-79
2022/04/21 21:57:57;;;;;;;7.17;3.43;;;;;;;5.91;100.00;100636.94;5033665;28;20057;-79
2022/04/21 22:00:37;;;;;;;7.57;3.30;;;;;;;5.89;100.00;100634.28;5048622;28;20043;-80
2022/04/21 22:03:07;;;;;;;6.53;3.47;;;;;;;5.72;100.00;100636.06;5015091;28;20041;-79
2022/04/21 22:05:34;;;;;;;7.83;3.57;;;;;;;5.68;100.00;100633.44;5033751;28;20104;-79
2022/04/21 22:08:04;;;;;;;5.33;3.33;;;;;;;5.64;100.00;100638.69;5057870;28;20040;-79
2022/04/21 22:10:31;;;;;;;4.77;3.03;;;;;;;5.50;100.00;100622.09;5048906;28;20399;-79
2022/04/21 22:13:02;;;;;;;4.87;3.37;;;;;;;5.55;100.00;100622.97;5016202;28;20044;-79
2022/04/21 22:15:29;;;;;;;6.17;3.47;;;;;;;5.43;100.00;100625.56;5014270;28;20033;-79
2022/04/21 22:17:56;;;;;;;7.17;4.00;;;;;;;5.31;100.00;100625.59;5032581;28;20562;-79
2022/04/21 22:20:24;;;;;;;7.83;4.17;;;;;;;5.34;100.00;100625.56;5030648;28;20068;-78
2022/04/21 22:22:54;;;;;;;8.53;4.40;;;;;;;5.26;100.00;100619.47;5039658;28;20045;-78
2022/04/21 22:25:21;;;;;;;7.53;3.47;;;;;;;5.05;100.00;100626.44;5033382;28;20398;-78
2022/04/21 22:27:48;;;;;;;7.73;3.43;;;;;;;5.01;100.00;100618.56;5016451;28;20041;-79
2022/04/21 22:30:15;;;;;;;8.40;3.53;;;;;;;5.01;100.00;100623.81;5061977;28;20106;-79
2022/04/21 22:32:49;;;;;;;7.13;3.10;;;;;;;4.97;100.00;100620.31;5029439;28;20036;-79
2022/04/21 22:35:16;;;;;;;8.18;4.15;;;;;;;4.91;100.00;100615.06;5052256;28;20036;-79